Time;durP1;ratioP1;P1;durP2;ratioP2;P2;SDS_P1;SDS_P2;PMS_P1;PMS_P2;Temp;Humidity;BMP_temperature;BMP_pressure;BME280_temperature;BME280_humidity;BME280_pressure;Samples;Min_cycle;Max_cycle;Signal;HPM_P1;HPM_P2
2022/01/06 00:00:44;;;;;;;48.40;4.57;;;;;;;3.19;100.00;101181.69;4997215;28;20378;-76
2022/01/06 00:03:10;;;;;;;44.80;4.20;;;;;;;3.17;100.00;101183.59;4992199;28;20458;-76
2022/01/06 00:05:35;;;;;;;42.58;2.88;;;;;;;3.12;100.00;101194.59;5003128;28;20068;-76
2022/01/06 00:08:02;;;;;;;30.30;3.13;;;;;;;3.05;100.00;101191.28;5008539;28;20054;-76
2022/01/06 00:10:29;;;;;;;44.78;4.88;;;;;;;3.05;100.00;101191.28;5002876;28;20113;-76
2022/01/06 00:15:41;;;;;;;36.20;2.92;;;;;;;2.94;100.00;101193.56;4997438;28;20470;-75
2022/01/06 00:18:20;;;;;;;46.92;3.70;;;;;;;2.97;100.00;101204.25;5020667;28;20041;-76
2022/01/06 00:23:38;;;;;;;57.08;3.92;;;;;;;2.86;100.00;101206.50;5002237;28;20042;-76
2022/01/06 00:26:04;;;;;;;34.28;3.38;;;;;;;2.80;100.00;101213.03;5005711;28;20477;-76
2022/01/06 00:28:30;;;;;;;39.17;3.17;;;;;;;2.82;100.00;101222.00;5005671;28;20044;-76
2022/01/06 00:30:56;;;;;;;36.10;2.83;;;;;;;2.79;100.00;101221.22;5003119;28;20693;-76
2022/01/06 00:33:22;;;;;;;54.30;3.67;;;;;;;2.72;100.00;101221.47;5014872;28;20033;-76
2022/01/06 00:35:48;;;;;;;49.20;3.63;;;;;;;2.67;100.00;101217.19;5009211;28;20030;-75
2022/01/06 00:38:14;;;;;;;29.88;2.97;;;;;;;2.73;100.00;101227.75;5012206;28;20045;-76
2022/01/06 00:40:39;;;;;;;37.17;3.22;;;;;;;2.73;100.00;101220.53;5003480;28;20057;-76
2022/01/06 00:43:07;;;;;;;34.60;3.13;;;;;;;2.73;100.00;101228.63;5017899;28;20387;-76
2022/01/06 00:45:33;;;;;;;46.35;3.13;;;;;;;2.73;100.00;101215.09;5012329;28;20041;-76
2022/01/06 00:48:00;;;;;;;33.60;3.05;;;;;;;2.77;100.00;101223.97;4998044;28;20069;-76
2022/01/06 00:50:26;;;;;;;31.55;2.92;;;;;;;2.75;100.00;101231.28;5008500;28;20214;-76
2022/01/06 00:52:51;;;;;;;51.63;3.58;;;;;;;2.76;100.00;101230.34;5001372;28;20109;-76
2022/01/06 00:55:17;;;;;;;43.17;3.97;;;;;;;2.70;100.00;101234.16;4996901;28;20040;-76
2022/01/06 00:57:43;;;;;;;34.00;2.92;;;;;;;2.69;100.00;101237.81;5002857;28;20038;-76
2022/01/06 01:00:09;;;;;;;43.25;3.40;;;;;;;2.66;100.00;101240.66;5010118;28;20666;-76
2022/01/06 01:02:35;;;;;;;46.30;3.30;;;;;;;2.70;100.00;101238.69;5008166;28;20335;-76
2022/01/06 01:05:01;;;;;;;37.55;3.05;;;;;;;2.68;100.00;101236.03;5002221;28;20030;-76
2022/01/06 01:07:26;;;;;;;25.50;2.70;;;;;;;2.68;100.00;101233.34;4994811;28;20477;-76
2022/01/06 01:09:51;;;;;;;37.63;2.88;;;;;;;2.65;100.00;101233.47;5009922;28;20023;-76
2022/01/06 01:12:17;;;;;;;43.75;2.60;;;;;;;2.72;100.00;101242.19;5003642;28;20053;-76
2022/01/06 01:14:56;;;;;;;45.03;3.35;;;;;;;2.78;100.00;101238.41;4978299;28;20122;-76
2022/01/06 01:17:24;;;;;;;49.55;4.70;;;;;;;2.83;100.00;101239.94;4997963;28;20029;-76
2022/01/06 01:19:50;;;;;;;30.67;2.67;;;;;;;2.87;100.00;101238.91;5005172;28;20061;-76
2022/01/06 01:22:16;;;;;;;37.25;3.50;;;;;;;2.87;100.00;101244.31;5003900;28;20061;-76
2022/01/06 01:24:41;;;;;;;42.40;5.22;;;;;;;2.83;100.00;101239.09;4996400;28;20046;-76
2022/01/06 01:27:07;;;;;;;56.80;3.67;;;;;;;2.82;100.00;101249.03;5011012;28;20444;-76
2022/01/06 01:29:40;;;;;;;40.47;4.05;;;;;;;2.81;100.00;101246.38;5008494;28;20517;-76
2022/01/06 01:32:06;;;;;;;;;;;;;;;2.75;100.00;101255.59;5014457;28;20117;-76
2022/01/06 01:34:32;;;;;;;51.90;3.30;;;;;;;2.65;100.00;101255.09;5000578;28;20001;-75
2022/01/06 01:36:57;;;;;;;42.45;3.35;;;;;;;2.62;100.00;101257.91;4995121;28;20113;-76
2022/01/06 01:39:23;;;;;;;26.55;3.08;;;;;;;2.60;100.00;101254.41;4997511;28;20517;-76
2022/01/06 01:41:49;;;;;;;47.92;3.97;;;;;;;2.55;100.00;101270.78;5013559;28;20077;-76
2022/01/06 01:44:18;;;;;;;40.72;4.13;;;;;;;2.51;100.00;101270.97;5004047;28;20026;-76
2022/01/06 01:46:52;;;;;;;26.52;3.70;;;;;;;2.50;100.00;101272.78;5012434;28;20120;-76
2022/01/06 01:51:50;;;;;;;46.13;5.15;;;;;;;2.43;100.00;101268.56;4994757;28;20031;-76
2022/01/06 01:54:16;;;;;;;38.55;3.42;;;;;;;2.37;100.00;101279.63;4996218;28;20026;-76
2022/01/06 01:56:43;;;;;;;52.13;3.00;;;;;;;2.34;100.00;101286.00;5010862;28;20045;-76
2022/01/06 01:59:09;;;;;;;38.20;4.63;;;;;;;2.37;100.00;101280.50;5014071;28;20038;-76
2022/01/06 02:01:35;;;;;;;36.45;4.15;;;;;;;2.30;100.00;101287.06;5001266;28;20053;-76
2022/01/06 02:04:01;;;;;;;57.10;4.60;;;;;;;2.31;100.00;101286.16;5010101;28;20030;-76
2022/01/06 02:06:26;;;;;;;27.02;3.85;;;;;;;2.28;100.00;101291.66;5005569;28;20096;-75
2022/01/06 02:08:51;;;;;;;38.30;4.55;;;;;;;2.25;100.00;101299.88;4995156;28;20042;-76
2022/01/06 02:11:19;;;;;;;53.53;5.80;;;;;;;2.23;100.00;101304.47;4997288;28;20026;-78
2022/01/06 02:13:58;;;;;;;56.55;4.28;;;;;;;2.26;100.00;101300.75;5010745;28;20398;-77
2022/01/06 02:16:25;;;;;;;47.38;3.28;;;;;;;2.20;100.00;101307.28;5008418;28;20468;-77
2022/01/06 02:18:52;;;;;;;35.75;5.43;;;;;;;2.14;100.00;101302.09;4999490;28;20093;-77
2022/01/06 02:21:18;;;;;;;42.13;5.07;;;;;;;2.14;100.00;101305.66;4999502;28;20541;-78
2022/01/06 02:23:44;;;;;;;59.80;4.88;;;;;;;2.12;100.00;101302.16;5003048;28;20049;-77
2022/01/06 02:26:10;;;;;;;49.80;3.60;;;;;;;2.12;100.00;101312.94;5007306;28;20045;-77
2022/01/06 02:28:40;;;;;;;38.80;3.50;;;;;;;2.07;100.00;101316.78;5006691;28;20026;-77
2022/01/06 02:31:06;;;;;;;46.55;3.58;;;;;;;2.05;100.00;101316.81;5003835;28;20517;-78
2022/01/06 02:33:31;;;;;;;41.67;4.95;;;;;;;2.00;100.00;101311.59;4992500;28;20045;-78
2022/01/06 02:35:57;;;;;;;48.92;5.20;;;;;;;1.97;100.00;101308.13;5010064;28;20029;-77
2022/01/06 02:38:23;;;;;;;52.40;5.18;;;;;;;2.04;100.00;101319.59;4992768;28;20437;-77
2022/01/06 02:40:49;;;;;;;39.83;4.68;;;;;;;1.95;100.00;101309.97;5012513;28;20048;-78
2022/01/06 02:43:18;;;;;;;28.70;3.58;;;;;;;1.93;100.00;101301.06;5013355;28;20029;-77
2022/01/06 02:45:45;;;;;;;40.15;3.95;;;;;;;1.91;100.00;101314.59;5004628;28;20030;-77
2022/01/06 02:48:11;;;;;;;44.85;4.43;;;;;;;1.92;100.00;101310.06;4999372;28;20041;-78
2022/01/06 02:50:46;;;;;;;53.35;5.30;;;;;;;1.94;100.00;101305.53;4998634;28;20038;-77
2022/01/06 02:53:13;;;;;;;57.28;5.80;;;;;;;1.90;100.00;101312.81;5003564;28;20074;-77
2022/01/06 02:55:50;;;;;;;38.45;4.60;;;;;;;1.90;100.00;101306.56;5015279;28;20036;-78
2022/01/06 02:58:17;;;;;;;26.63;4.18;;;;;;;1.83;100.00;101311.28;5013389;28;20042;-78
2022/01/06 03:00:43;;;;;;;36.63;4.18;;;;;;;1.78;100.00;101306.06;5011556;28;20052;-78
2022/01/06 03:03:09;;;;;;;36.35;4.07;;;;;;;1.78;100.00;101313.28;4995369;28;20037;-77
2022/01/06 03:05:35;;;;;;;34.33;3.78;;;;;;;1.70;100.00;101304.56;5009136;28;20045;-78
2022/01/06 03:08:00;;;;;;;37.35;4.18;;;;;;;1.71;100.00;101311.75;5004547;28;20122;-77
2022/01/06 03:10:27;;;;;;;50.15;5.40;;;;;;;1.76;100.00;101298.97;5005617;28;20092;-78
2022/01/06 03:12:53;;;;;;;46.83;4.32;;;;;;;1.75;100.00;101314.25;5009803;28;20077;-78
2022/01/06 03:15:21;;;;;;;22.60;3.58;;;;;;;1.76;100.00;101313.34;5000315;28;20030;-78
2022/01/06 03:17:49;;;;;;;52.42;4.13;;;;;;;1.73;100.00;101312.56;5000650;28;20084;-76
2022/01/06 03:20:17;;;;;;;47.17;5.78;;;;;;;1.71;100.00;101317.16;5004280;28;20093;-77
2022/01/06 03:22:43;;;;;;;53.70;3.97;;;;;;;1.68;100.00;101328.91;4988919;28;20770;-77
2022/01/06 03:25:10;;;;;;;43.08;3.95;;;;;;;1.66;100.00;101325.41;4981350;28;20030;-77
2022/01/06 03:27:36;;;;;;;50.45;4.70;;;;;;;1.65;100.00;101329.00;5001389;28;20033;-77
2022/01/06 03:30:08;;;;;;;41.85;3.83;;;;;;;1.54;100.00;101324.00;5010628;28;20049;-77
2022/01/06 03:32:34;;;;;;;43.60;4.30;;;;;;;1.53;100.00;101330.31;5006108;28;20026;-77
2022/01/06 03:34:59;;;;;;;50.08;4.72;;;;;;;1.54;100.00;101337.50;4988145;28;20133;-77
2022/01/06 03:37:25;;;;;;;31.55;3.63;;;;;;;1.58;100.00;101343.66;5000658;28;20037;-78
2022/01/06 03:39:50;;;;;;;35.05;4.15;;;;;;;1.46;100.00;101347.66;5006049;28;20050;-77
2022/01/06 03:42:15;;;;;;;29.13;4.00;;;;;;;1.38;100.00;101342.50;5008350;28;20034;-76
2022/01/06 03:44:41;;;;;;;31.67;3.90;;;;;;;1.46;100.00;101348.53;5015795;28;20353;-77
2022/01/06 03:47:07;;;;;;;43.17;4.57;;;;;;;1.49;100.00;101350.22;5004429;28;20034;-76
2022/01/06 03:49:33;;;;;;;39.33;3.95;;;;;;;1.52;100.00;101349.25;5007366;28;20065;-77
2022/01/06 03:51:58;;;;;;;61.80;5.20;;;;;;;1.49;100.00;101346.66;5010297;28;20022;-77
2022/01/06 03:54:24;;;;;;;39.60;4.47;;;;;;;1.51;100.00;101358.28;5006033;28;20034;-77
2022/01/06 03:56:50;;;;;;;45.60;5.00;;;;;;;1.52;100.00;101351.97;5001699;28;20053;-77
2022/01/06 03:59:16;;;;;;;41.17;4.32;;;;;;;1.53;100.00;101357.31;5005013;28;20034;-77
2022/01/06 04:01:43;;;;;;;31.92;3.72;;;;;;;1.51;100.00;101361.88;5000772;28;20512;-77
2022/01/06 04:04:09;;;;;;;41.47;5.32;;;;;;;1.44;100.00;101358.50;5012783;28;20108;-77
2022/01/06 04:06:35;;;;;;;38.60;4.13;;;;;;;1.47;100.00;101355.69;5010945;28;20037;-76
2022/01/06 04:09:00;;;;;;;32.03;5.90;;;;;;;1.48;100.00;101361.97;5021302;28;20092;-78
2022/01/06 04:11:26;;;;;;;52.42;6.60;;;;;;;1.46;100.00;101356.63;5005905;28;20125;-76
2022/01/06 04:13:51;;;;;;;52.28;5.63;;;;;;;1.44;100.00;101363.00;5006979;28;20535;-78
2022/01/06 04:16:17;;;;;;;43.05;5.15;;;;;;;1.40;100.00;101355.97;5003395;28;20035;-78
2022/01/06 04:18:44;;;;;;;48.72;4.32;;;;;;;1.41;100.00;101360.41;5002627;28;20049;-77
2022/01/06 04:21:10;;;;;;;45.75;5.35;;;;;;;1.44;100.00;101371.09;5005266;28;20165;-76
2022/01/06 04:23:35;;;;;;;29.33;4.60;;;;;;;1.38;100.00;101374.88;5003678;28;20525;-78
2022/01/06 04:26:02;;;;;;;46.17;4.35;;;;;;;1.36;100.00;101375.84;5010310;28;20105;-77
2022/01/06 04:28:27;;;;;;;51.88;5.63;;;;;;;1.32;100.00;101374.22;5020798;28;20047;-77
2022/01/06 04:30:53;;;;;;;55.80;5.25;;;;;;;1.38;100.00;101376.72;5004793;28;20029;-76
2022/01/06 04:33:18;;;;;;;49.50;5.10;;;;;;;1.37;100.00;101378.50;4985148;28;20103;-77
2022/01/06 04:35:44;;;;;;;34.30;5.28;;;;;;;1.34;100.00;101373.22;4995880;28;20038;-77
2022/01/06 04:38:09;;;;;;;50.30;4.55;;;;;;;1.36;100.00;101381.25;5006478;28;20038;-77
2022/01/06 04:40:36;;;;;;;36.85;4.53;;;;;;;1.34;100.00;101393.91;5007155;28;20031;-77
2022/01/06 04:43:01;;;;;;;54.10;5.18;;;;;;;1.33;100.00;101392.13;5007824;28;20045;-77
2022/01/06 04:45:27;;;;;;;51.03;5.60;;;;;;;1.27;100.00;101391.41;5009499;28;20029;-77
2022/01/06 04:47:52;;;;;;;35.55;4.43;;;;;;;1.31;100.00;101402.97;5007242;28;20041;-77
2022/01/06 04:50:18;;;;;;;44.08;4.40;;;;;;;1.24;100.00;101398.72;5012027;28;20049;-77
2022/01/06 04:52:43;;;;;;;39.70;5.40;;;;;;;1.23;100.00;101397.84;5005755;28;20042;-77
2022/01/06 04:55:09;;;;;;;35.75;4.70;;;;;;;1.21;100.00;101404.19;5015141;28;20045;-77
2022/01/06 04:57:34;;;;;;;48.13;5.57;;;;;;;1.19;100.00;101406.94;5010621;28;20531;-77
2022/01/06 05:00:00;;;;;;;51.08;4.65;;;;;;;1.13;100.00;101404.44;5017124;28;20484;-77
2022/01/06 05:02:26;;;;;;;37.28;5.32;;;;;;;1.12;100.00;101405.38;5006875;28;20443;-78
2022/01/06 05:04:52;;;;;;;39.78;5.03;;;;;;;1.08;100.00;101417.19;5002703;28;20037;-77
2022/01/06 05:07:17;;;;;;;64.65;7.47;;;;;;;1.09;100.00;101410.88;5010636;28;20029;-77
2022/01/06 05:09:43;;;;;;;52.92;6.50;;;;;;;1.08;100.00;101415.38;5007153;28;20130;-77
2022/01/06 05:12:08;;;;;;;51.95;5.43;;;;;;;1.07;100.00;101418.13;5004788;28;20032;-76
2022/01/06 05:14:34;;;;;;;62.67;6.68;;;;;;;1.09;100.00;101427.03;5002252;28;20038;-77
2022/01/06 05:17:00;;;;;;;34.28;4.60;;;;;;;1.07;100.00;101426.22;4998772;28;20034;-77
2022/01/06 05:19:26;;;;;;;44.80;5.45;;;;;;;1.03;100.00;101424.53;4987776;28;20145;-77
2022/01/06 05:21:52;;;;;;;44.33;4.97;;;;;;;1.04;100.00;101424.47;5009014;28;20502;-76
2022/01/06 05:24:18;;;;;;;29.88;5.82;;;;;;;0.99;100.00;101433.66;4993446;28;20462;-77
2022/01/06 05:26:44;;;;;;;35.35;5.30;;;;;;;0.95;100.00;101431.97;5007771;28;20057;-77
2022/01/06 05:29:11;;;;;;;40.08;5.03;;;;;;;0.99;100.00;101439.06;4998649;28;20418;-77
2022/01/06 05:31:37;;;;;;;58.88;6.45;;;;;;;1.02;100.00;101442.53;5005329;28;20474;-77
2022/01/06 05:34:04;;;;;;;34.28;5.13;;;;;;;0.99;100.00;101447.13;5009682;28;20120;-77
2022/01/06 05:36:29;;;;;;;38.35;6.35;;;;;;;1.00;100.00;101440.78;5011797;28;20036;-77
2022/01/06 05:38:55;;;;;;;42.85;4.88;;;;;;;0.99;100.00;101448.00;5003680;28;20038;-77
2022/01/06 05:41:21;;;;;;;47.30;5.85;;;;;;;0.96;100.00;101450.78;4980020;28;20030;-78
2022/01/06 05:43:48;;;;;;;35.83;6.00;;;;;;;0.89;100.00;101446.53;4998949;28;20181;-78
2022/01/06 05:46:14;;;;;;;36.45;6.32;;;;;;;0.90;100.00;101449.19;5009915;28;20472;-77
2022/01/06 05:48:39;;;;;;;44.65;6.95;;;;;;;0.86;100.00;101457.41;5006093;28;20037;-78
2022/01/06 05:51:05;;;;;;;28.85;5.53;;;;;;;0.78;100.00;101454.03;5014361;28;20661;-77
2022/01/06 05:53:30;;;;;;;49.03;6.53;;;;;;;0.81;100.00;101462.03;4999448;28;20477;-77
2022/01/06 05:55:56;;;;;;;52.22;6.70;;;;;;;0.76;100.00;101456.78;4986332;28;20462;-77
2022/01/06 05:58:21;;;;;;;60.15;7.65;;;;;;;0.80;100.00;101458.44;4998825;28;20034;-77
2022/01/06 06:00:50;;;;;;;59.35;7.72;;;;;;;0.73;100.00;101457.72;5009903;28;20053;-77
2022/01/06 06:03:15;;;;;;;65.53;7.90;;;;;;;0.78;100.00;101457.59;5005168;28;20034;-76
2022/01/06 06:05:41;;;;;;;58.58;7.70;;;;;;;0.82;100.00;101464.69;4999427;28;20026;-76
2022/01/06 06:08:08;;;;;;;32.50;7.25;;;;;;;0.82;100.00;101463.78;4996071;28;20073;-76
2022/01/06 06:10:34;;;;;;;50.17;9.23;;;;;;;0.83;100.00;101466.44;5008902;28;20026;-76
2022/01/06 06:12:59;;;;;;;53.55;10.20;;;;;;;0.79;100.00;101471.94;4997734;28;20317;-75
2022/01/06 06:15:26;;;;;;;53.10;8.40;;;;;;;0.74;100.00;101477.50;5007414;28;20081;-76
2022/01/06 06:17:51;;;;;;;48.85;8.45;;;;;;;0.76;100.00;101480.16;4985428;28;20053;-76
2022/01/06 06:20:17;;;;;;;59.00;9.32;;;;;;;0.73;100.00;101484.69;5008257;28;20414;-75
2022/01/06 06:22:42;;;;;;;55.20;9.88;;;;;;;0.77;100.00;101485.50;5008573;28;20111;-76
2022/01/06 06:25:08;;;;;;;50.65;8.65;;;;;;;0.72;100.00;101485.63;5000256;28;20106;-77
2022/01/06 06:27:34;;;;;;;54.70;8.85;;;;;;;0.79;100.00;101494.41;4988090;28;20034;-76
2022/01/06 06:29:59;;;;;;;47.30;10.48;;;;;;;0.72;100.00;101492.81;5003336;28;20113;-76
2022/01/06 06:32:27;;;;;;;55.40;9.40;;;;;;;0.73;100.00;101503.53;5005916;28;20045;-77
2022/01/06 06:34:53;;;;;;;43.95;9.68;;;;;;;0.69;100.00;101493.78;5016426;28;20084;-77
2022/01/06 06:37:18;;;;;;;51.03;10.52;;;;;;;0.65;100.00;101496.59;4980080;28;20482;-78
2022/01/06 06:39:44;;;;;;;51.92;11.15;;;;;;;0.59;100.00;101502.16;4986840;28;20056;-76
2022/01/06 06:42:09;;;;;;;43.30;10.00;;;;;;;0.53;100.00;101509.47;5002883;28;20062;-77
2022/01/06 06:44:35;;;;;;;49.85;8.82;;;;;;;0.60;100.00;101512.03;4992301;28;20039;-78
2022/01/06 06:47:00;;;;;;;51.25;9.90;;;;;;;0.65;100.00;101510.09;5001249;28;20026;-77
2022/01/06 06:49:26;;;;;;;52.05;10.60;;;;;;;0.63;100.00;101520.03;4995199;28;20038;-76
2022/01/06 06:51:51;;;;;;;55.75;9.02;;;;;;;0.59;100.00;101513.84;5003124;28;20037;-77
2022/01/06 06:54:17;;;;;;;38.92;9.93;;;;;;;0.61;100.00;101516.47;4996990;28;20041;-76
2022/01/06 06:56:43;;;;;;;56.00;9.52;;;;;;;0.60;100.00;101514.72;5000406;28;20029;-77
2022/01/06 06:59:09;;;;;;;55.40;10.52;;;;;;;0.62;100.00;101523.63;4988043;28;20062;-78
2022/01/06 07:01:34;;;;;;;46.65;9.82;;;;;;;0.54;100.00;101519.34;4995657;28;20039;-77
2022/01/06 07:04:00;;;;;;;45.65;9.38;;;;;;;0.52;100.00;101529.25;5009499;28;20038;-77
2022/01/06 07:06:26;;;;;;;35.78;8.68;;;;;;;0.50;100.00;101524.84;5000899;28;21683;-77
2022/01/06 07:08:51;;;;;;;72.57;11.90;;;;;;;0.51;100.00;101532.91;4994640;28;20142;-77
2022/01/06 07:11:17;;;;;;;42.33;9.25;;;;;;;0.54;100.00;101540.91;4986551;28;20391;-77
2022/01/06 07:13:42;;;;;;;41.85;9.57;;;;;;;0.51;100.00;101540.97;5004606;28;20084;-76
2022/01/06 07:16:08;;;;;;;46.35;9.85;;;;;;;0.53;100.00;101544.50;5002806;28;20044;-77
2022/01/06 07:18:33;;;;;;;51.40;10.23;;;;;;;0.52;100.00;101537.34;4997177;28;20026;-75
2022/01/06 07:20:59;;;;;;;45.00;9.95;;;;;;;0.51;100.00;101540.97;5004379;28;20054;-76
2022/01/06 07:23:24;;;;;;;56.28;9.77;;;;;;;0.48;100.00;101554.53;5001342;28;20038;-77
2022/01/06 07:25:50;;;;;;;38.17;11.60;;;;;;;0.49;100.00;101559.00;5003356;28;20058;-76
2022/01/06 07:28:15;;;;;;;52.15;10.70;;;;;;;0.45;100.00;101564.50;4991022;28;20166;-77
2022/01/06 07:30:40;;;;;;;56.17;11.52;;;;;;;0.42;100.00;101564.56;4994433;28;20032;-76
2022/01/06 07:33:06;;;;;;;53.15;11.07;;;;;;;0.43;100.00;101575.31;4989883;28;20042;-76
2022/01/06 07:35:32;;;;;;;65.75;12.20;;;;;;;0.37;100.00;101580.84;4996903;28;20049;-77
2022/01/06 07:37:57;;;;;;;57.70;11.80;;;;;;;0.41;100.00;101578.97;5000419;28;20086;-77
2022/01/06 07:40:24;;;;;;;47.50;11.88;;;;;;;0.34;100.00;101580.91;5001889;28;20042;-77
2022/01/06 07:42:50;;;;;;;45.78;13.25;;;;;;;0.38;100.00;101587.09;5000004;28;20041;-77
2022/01/06 07:45:17;;;;;;;53.03;12.57;;;;;;;0.31;100.00;101589.97;5000876;28;20053;-76
2022/01/06 07:47:54;;;;;;;56.15;13.73;;;;;;;0.36;100.00;101582.66;5004866;28;20030;-77
2022/01/06 07:50:22;;;;;;;65.03;13.82;;;;;;;0.36;100.00;101597.91;4987985;28;20513;-76
2022/01/06 07:52:48;;;;;;;54.30;13.13;;;;;;;0.36;100.00;101598.81;4997424;28;20087;-77
2022/01/06 07:55:13;;;;;;;60.95;13.77;;;;;;;0.30;100.00;101590.88;4997137;28;20034;-77
2022/01/06 07:57:38;;;;;;;64.40;14.35;;;;;;;0.26;100.00;101588.31;5005719;28;20038;-77
2022/01/06 08:00:05;;;;;;;53.03;14.15;;;;;;;0.30;100.00;101596.28;5002903;28;20045;-77
2022/01/06 08:02:30;;;;;;;43.20;13.88;;;;;;;0.34;100.00;101591.69;4994816;28;20037;-77
2022/01/06 08:04:56;;;;;;;63.72;16.50;;;;;;;0.34;100.00;101592.59;4999673;28;20389;-77
2022/01/06 08:07:21;;;;;;;49.88;13.98;;;;;;;0.33;100.00;101592.63;4995423;28;20128;-77
2022/01/06 08:09:47;;;;;;;42.50;13.23;;;;;;;0.24;100.00;101596.41;4996016;28;20093;-77
2022/01/06 08:12:12;;;;;;;70.95;16.10;;;;;;;0.32;100.00;101598.94;5006938;28;20737;-77
2022/01/06 08:14:38;;;;;;;57.78;14.30;;;;;;;0.31;100.00;101589.97;5009126;28;20049;-77
2022/01/06 08:17:04;;;;;;;52.63;14.35;;;;;;;0.39;100.00;101596.97;5018846;28;20042;-77
2022/01/06 08:19:29;;;;;;;52.60;15.82;;;;;;;0.38;100.00;101605.97;4996787;28;20072;-77
2022/01/06 08:21:55;;;;;;;56.13;14.43;;;;;;;0.33;100.00;101598.91;4989118;28;20616;-77
2022/01/06 08:24:20;;;;;;;57.00;16.20;;;;;;;0.35;100.00;101596.16;5002355;28;20038;-77
2022/01/06 08:26:46;;;;;;;61.45;15.65;;;;;;;0.42;100.00;101605.84;5004328;28;20057;-77
2022/01/06 08:29:11;;;;;;;59.97;16.05;;;;;;;0.41;100.00;101606.81;5004686;28;20038;-76
2022/01/06 08:31:36;;;;;;;48.67;14.55;;;;;;;0.47;100.00;101611.13;5000253;28;20026;-76
2022/01/06 08:34:02;;;;;;;45.72;14.23;;;;;;;0.46;100.00;101610.25;5008857;28;20033;-77
2022/01/06 08:36:28;;;;;;;56.85;14.57;;;;;;;0.59;100.00;101616.22;5011827;28;20041;-78
2022/01/06 08:38:53;;;;;;;64.53;15.50;;;;;;;0.60;100.00;101617.09;5005440;28;20477;-77
2022/01/06 08:41:18;;;;;;;60.20;16.15;;;;;;;0.66;100.00;101611.56;4991353;28;20033;-78
2022/01/06 08:43:44;;;;;;;41.30;14.25;;;;;;;0.63;100.00;101611.66;5006423;28;20038;-76
2022/01/06 08:46:10;;;;;;;67.47;15.27;;;;;;;0.68;100.00;101613.28;5004525;28;20239;-77
2022/01/06 08:48:35;;;;;;;71.50;14.65;;;;;;;0.64;100.00;101618.78;4994527;28;20033;-77
2022/01/06 08:51:01;;;;;;;56.42;14.45;;;;;;;0.72;100.00;101620.38;5008131;28;20458;-77
2022/01/06 08:53:27;;;;;;;79.63;18.95;;;;;;;0.75;100.00;101610.44;4996818;28;20506;-77
2022/01/06 08:55:53;;;;;;;58.72;18.77;;;;;;;0.85;100.00;101612.84;4983383;28;20053;-77
2022/01/06 08:58:19;;;;;;;52.38;18.38;;;;;;;0.88;100.00;101612.75;5003630;28;20129;-76
2022/01/06 09:00:44;;;;;;;76.63;19.67;;;;;;;0.98;100.00;101617.91;5000887;28;20046;-77
2022/01/06 09:03:10;;;;;;;63.42;18.60;;;;;;;1.01;100.00;101612.44;5003992;28;20042;-77
2022/01/06 09:05:37;;;;;;;72.80;17.23;;;;;;;1.05;100.00;101625.81;5007065;28;20488;-78
2022/01/06 09:08:04;;;;;;;67.97;18.08;;;;;;;1.13;100.00;101630.97;5004359;28;20045;-77
2022/01/06 09:10:34;;;;;;;63.83;17.13;;;;;;;1.12;100.00;101622.94;5013376;28;20046;-78
2022/01/06 09:13:03;;;;;;;48.22;17.05;;;;;;;1.19;100.00;101633.50;5001441;28;20462;-76
2022/01/06 09:15:29;;;;;;;59.58;17.30;;;;;;;1.25;100.00;101638.72;5009943;28;20046;-77
2022/01/06 09:17:56;;;;;;;71.60;17.73;;;;;;;1.29;100.00;101640.41;5006616;28;20036;-77
2022/01/06 09:20:22;;;;;;;74.38;16.98;;;;;;;1.33;100.00;101641.22;5005973;28;20030;-77
2022/01/06 09:22:48;;;;;;;69.22;18.23;;;;;;;1.43;100.00;101636.47;5000512;28;20030;-77
2022/01/06 09:25:14;;;;;;;75.07;18.55;;;;;;;1.44;100.00;101640.91;4998879;28;20036;-76
2022/01/06 09:27:41;;;;;;;59.08;18.48;;;;;;;1.51;100.00;101645.22;5008726;28;20046;-76
2022/01/06 09:30:07;;;;;;;57.75;18.58;;;;;;;1.55;100.00;101646.88;5007223;28;20064;-76
2022/01/06 09:32:33;;;;;;;58.83;17.95;;;;;;;1.68;100.00;101646.53;5004242;28;20094;-77
2022/01/06 09:34:59;;;;;;;70.75;19.30;;;;;;;1.65;100.00;101640.28;5001932;28;20061;-76
2022/01/06 09:37:26;;;;;;;66.00;18.65;;;;;;;1.71;100.00;101644.63;5008140;28;20034;-76
2022/01/06 09:39:51;;;;;;;86.22;19.20;;;;;;;1.72;100.00;101649.09;5000807;28;20042;-77
2022/01/06 09:42:18;;;;;;;78.78;22.10;;;;;;;1.86;100.00;101645.97;4996575;28;20085;-76
2022/01/06 09:44:47;;;;;;;79.60;20.70;;;;;;;1.96;100.00;101652.88;4998249;28;20407;-76
2022/01/06 09:47:12;;;;;;;79.43;22.00;;;;;;;2.06;100.00;101660.69;5009152;28;20036;-77
2022/01/06 09:49:40;;;;;;;72.07;20.80;;;;;;;2.13;100.00;101657.78;5012528;28;20534;-77
2022/01/06 09:52:06;;;;;;;68.53;21.38;;;;;;;2.16;100.00;101670.28;4994875;28;20027;-76
2022/01/06 09:54:33;;;;;;;78.45;21.02;;;;;;;2.24;100.00;101670.94;4998784;28;20036;-76
2022/01/06 09:56:59;;;;;;;93.40;22.05;;;;;;;2.33;100.00;101672.47;5011505;28;20037;-77
2022/01/06 09:59:25;;;;;;;85.45;22.15;;;;;;;2.42;100.00;101665.88;4996888;28;20034;-77
2022/01/06 10:01:50;;;;;;;82.18;20.55;;;;;;;2.53;100.00;101674.53;5010130;28;20026;-77
2022/01/06 10:04:18;;;;;;;77.07;18.20;;;;;;;2.65;100.00;101674.13;4997049;28;20041;-76
2022/01/06 10:06:56;;;;;;;63.72;19.17;;;;;;;2.71;100.00;101676.63;5003789;28;20060;-77
2022/01/06 10:09:25;;;;;;;84.53;20.33;;;;;;;2.80;100.00;101674.56;5009285;28;20505;-78
2022/01/06 10:11:54;;;;;;;73.35;20.95;;;;;;;2.92;100.00;101671.44;4994971;28;20026;-78
2022/01/06 10:14:30;;;;;;;77.10;19.33;;;;;;;2.89;100.00;101666.13;5001231;28;20470;-77
2022/01/06 10:16:56;;;;;;;58.20;19.52;;;;;;;3.09;100.00;101671.72;4995301;28;20117;-76
2022/01/06 10:19:23;;;;;;;54.60;19.40;;;;;;;3.20;100.00;101671.38;5001420;28;20038;-77
2022/01/06 10:21:56;;;;;;;69.15;18.40;;;;;;;3.34;100.00;101670.00;5019085;28;20084;-78
2022/01/06 10:24:23;;;;;;;63.63;17.23;;;;;;;3.33;100.00;101671.81;5012471;28;20037;-77
2022/01/06 10:26:58;;;;;;;53.92;18.08;;;;;;;3.47;100.00;101663.19;5001094;28;20049;-76
2022/01/06 10:29:27;;;;;;;65.95;17.77;;;;;;;3.58;100.00;101668.22;5005451;28;20041;-76
2022/01/06 10:32:02;;;;;;;61.25;18.10;;;;;;;3.59;100.00;101665.47;5016375;28;20022;-76
2022/01/06 10:34:39;;;;;;;74.32;17.15;;;;;;;3.69;100.00;101666.00;4987732;28;20026;-77
2022/01/06 10:37:17;;;;;;;56.88;17.05;;;;;;;3.66;100.00;101661.56;5009906;28;20069;-77
2022/01/06 10:39:47;;;;;;;70.97;18.83;;;;;;;3.79;100.00;101663.84;5003443;28;20037;-77
2022/01/06 10:42:13;;;;;;;55.42;15.45;;;;;;;3.89;100.00;101667.03;5002181;28;20050;-77
2022/01/06 10:44:49;;;;;;;60.92;16.45;;;;;;;3.96;100.00;101655.94;5001912;28;20029;-77
2022/01/06 10:47:40;;;;;;;62.25;16.15;;;;;;;3.95;100.00;101662.31;4998528;28;20057;-77
2022/01/06 10:50:21;;;;;;;62.33;16.35;;;;;;;4.09;100.00;101661.75;4994374;28;20684;-77
2022/01/06 10:52:52;;;;;;;55.05;13.55;;;;;;;4.17;100.00;101651.50;4995042;28;20049;-77
2022/01/06 10:55:28;;;;;;;44.53;13.32;;;;;;;4.25;100.00;101653.91;5002502;28;20022;-77
2022/01/06 10:58:03;;;;;;;70.70;14.38;;;;;;;4.49;100.00;101643.88;5013408;28;20068;-77
2022/01/06 11:00:45;;;;;;;46.00;13.98;;;;;;;4.60;100.00;101641.63;5008625;28;20037;-76
2022/01/06 11:03:13;;;;;;;49.70;13.57;;;;;;;4.75;100.00;101640.09;4995574;28;20038;-77
2022/01/06 11:05:41;;;;;;;50.78;12.40;;;;;;;4.83;100.00;101647.03;4978563;28;20044;-77
2022/01/06 11:08:08;;;;;;;43.70;11.38;;;;;;;4.72;100.00;101651.09;5004872;28;20189;-78
2022/01/06 11:10:40;;;;;;;53.50;12.77;;;;;;;4.74;100.00;101643.75;4994411;28;20034;-77
2022/01/06 11:13:06;;;;;;;47.22;12.50;;;;;;;4.72;100.00;101645.66;4997261;28;20537;-77
2022/01/06 11:15:32;;;;;;;53.42;12.10;;;;;;;4.89;100.00;101641.34;4988560;28;20073;-77
2022/01/06 11:18:03;;;;;;;41.65;11.07;;;;;;;4.94;100.00;101644.75;4997425;28;20045;-77
2022/01/06 11:20:29;;;;;;;50.80;11.02;;;;;;;5.08;100.00;101641.44;5012333;28;20026;-77